sensor_id;sensor_type;location;lat;lon;timestamp;temperature;humidity
37232;DHT22;23125;48.156;15.954;2022-07-10T00:00:39;21.00;61.20
37232;DHT22;23125;48.156;15.954;2022-07-10T00:03:05;20.90;61.20
37232;DHT22;23125;48.156;15.954;2022-07-10T00:05:32;20.90;61.40
37232;DHT22;23125;48.156;15.954;2022-07-10T00:08:00;20.90;61.40
37232;DHT22;23125;48.156;15.954;2022-07-10T00:10:28;20.90;61.50
37232;DHT22;23125;48.156;15.954;2022-07-10T00:12:55;20.90;61.50
37232;DHT22;23125;48.156;15.954;2022-07-10T00:15:22;20.90;61.40
37232;DHT22;23125;48.156;15.954;2022-07-10T00:17:48;20.80;61.40
37232;DHT22;23125;48.156;15.954;2022-07-10T00:20:15;20.80;62.00
37232;DHT22;23125;48.156;15.954;2022-07-10T00:22:42;20.80;61.30
37232;DHT22;23125;48.156;15.954;2022-07-10T00:25:12;20.70;61.30
37232;DHT22;23125;48.156;15.954;2022-07-10T00:27:40;20.70;61.40
37232;DHT22;23125;48.156;15.954;2022-07-10T00:30:08;20.60;61.30
37232;DHT22;23125;48.156;15.954;2022-07-10T00:32:34;20.60;61.40
37232;DHT22;23125;48.156;15.954;2022-07-10T00:35:00;20.50;61.40
37232;DHT22;23125;48.156;15.954;2022-07-10T00:37:27;20.50;61.50
37232;DHT22;23125;48.156;15.954;2022-07-10T00:39:53;20.50;61.60
37232;DHT22;23125;48.156;15.954;2022-07-10T00:42:19;20.40;61.50
37232;DHT22;23125;48.156;15.954;2022-07-10T00:44:45;20.40;61.50
37232;DHT22;23125;48.156;15.954;2022-07-10T12:50:02;25.30;44.20
37232;DHT22;23125;48.156;15.954;2022-07-10T12:52:36;25.30;44.10
37232;DHT22;23125;48.156;15.954;2022-07-10T12:55:10;25.30;44.00
37232;DHT22;23125;48.156;15.954;2022-07-10T12:57:55;25.40;43.80
37232;DHT22;23125;48.156;15.954;2022-07-10T13:00:26;25.30;43.10
37232;DHT22;23125;48.156;15.954;2022-07-10T13:03:03;25.30;43.20
37232;DHT22;23125;48.156;15.954;2022-07-10T13:05:36;25.20;42.90
37232;DHT22;23125;48.156;15.954;2022-07-10T13:08:12;25.20;42.90
37232;DHT22;23125;48.156;15.954;2022-07-10T13:10:52;25.20;43.00
37232;DHT22;23125;48.156;15.954;2022-07-10T13:13:19;25.20;43.00
37232;DHT22;23125;48.156;15.954;2022-07-10T13:15:45;25.20;42.50
37232;DHT22;23125;48.156;15.954;2022-07-10T13:18:22;25.20;42.50
37232;DHT22;23125;48.156;15.954;2022-07-10T13:20:50;25.20;42.60
37232;DHT22;23125;48.156;15.954;2022-07-10T13:23:17;25.20;42.40
37232;DHT22;23125;48.156;15.954;2022-07-10T13:25:51;25.20;42.50
37232;DHT22;23125;48.156;15.954;2022-07-10T13:28:18;25.20;42.30
37232;DHT22;23125;48.156;15.954;2022-07-10T13:30:45;25.10;41.80
37232;DHT22;23125;48.156;15.954;2022-07-10T13:33:11;25.10;41.70
37232;DHT22;23125;48.156;15.954;2022-07-10T13:35:37;25.00;41.60
37232;DHT22;23125;48.156;15.954;2022-07-10T13:38:05;25.00;41.40
37232;DHT22;23125;48.156;15.954;2022-07-10T13:40:34;24.90;41.20
37232;DHT22;23125;48.156;15.954;2022-07-10T13:43:00;24.90;41.40
37232;DHT22;23125;48.156;15.954;2022-07-10T13:45:27;24.80;41.50
37232;DHT22;23125;48.156;15.954;2022-07-10T13:48:03;24.80;41.40
37232;DHT22;23125;48.156;15.954;2022-07-10T13:50:29;24.70;41.40
37232;DHT22;23125;48.156;15.954;2022-07-10T13:52:55;24.70;41.50
37232;DHT22;23125;48.156;15.954;2022-07-10T13:55:21;24.70;41.70
37232;DHT22;23125;48.156;15.954;2022-07-10T13:57:47;24.60;41.40
37232;DHT22;23125;48.156;15.954;2022-07-10T14:00:13;24.50;41.10
37232;DHT22;23125;48.156;15.954;2022-07-10T14:02:39;24.50;41.20
37232;DHT22;23125;48.156;15.954;2022-07-10T14:05:07;24.50;40.90
37232;DHT22;23125;48.156;15.954;2022-07-10T14:07:36;24.40;40.80
37232;DHT22;23125;48.156;15.954;2022-07-10T14:10:03;24.30;40.70
37232;DHT22;23125;48.156;15.954;2022-07-10T14:12:31;24.20;40.90
37232;DHT22;23125;48.156;15.954;2022-07-10T14:14:57;24.20;40.80
37232;DHT22;23125;48.156;15.954;2022-07-10T14:17:24;24.20;41.20
37232;DHT22;23125;48.156;15.954;2022-07-10T14:19:51;24.20;41.20
37232;DHT22;23125;48.156;15.954;2022-07-10T14:22:19;24.20;41.30
37232;DHT22;23125;48.156;15.954;2022-07-10T14:24:45;24.20;41.10
37232;DHT22;23125;48.156;15.954;2022-07-10T14:27:11;24.20;40.80
37232;DHT22;23125;48.156;15.954;2022-07-10T14:29:37;24.20;40.90
37232;DHT22;23125;48.156;15.954;2022-07-10T14:32:05;24.20;40.70
37232;DHT22;23125;48.156;15.954;2022-07-10T14:34:31;24.20;40.50
37232;DHT22;23125;48.156;15.954;2022-07-10T14:36:57;24.10;40.60
37232;DHT22;23125;48.156;15.954;2022-07-10T14:39:24;24.10;40.50
37232;DHT22;23125;48.156;15.954;2022-07-10T14:41:50;24.10;40.30
37232;DHT22;23125;48.156;15.954;2022-07-10T14:44:15;24.00;40.20
37232;DHT22;23125;48.156;15.954;2022-07-10T14:46:41;24.00;40.10
37232;DHT22;23125;48.156;15.954;2022-07-10T14:49:09;24.00;40.20
37232;DHT22;23125;48.156;15.954;2022-07-10T14:51:35;23.90;40.10
37232;DHT22;23125;48.156;15.954;2022-07-10T14:54:02;24.00;40.30
37232;DHT22;23125;48.156;15.954;2022-07-10T14:56:28;23.90;40.20
37232;DHT22;23125;48.156;15.954;2022-07-10T14:58:54;24.00;40.10
37232;DHT22;23125;48.156;15.954;2022-07-10T15:01:20;24.00;39.80
37232;DHT22;23125;48.156;15.954;2022-07-10T15:03:46;24.00;39.70
37232;DHT22;23125;48.156;15.954;2022-07-10T15:06:12;24.00;39.60
37232;DHT22;23125;48.156;15.954;2022-07-10T15:08:38;24.00;39.80
37232;DHT22;23125;48.156;15.954;2022-07-10T15:11:04;24.00;39.90
37232;DHT22;23125;48.156;15.954;2022-07-10T15:13:32;24.10;39.90
37232;DHT22;23125;48.156;15.954;2022-07-10T15:15:58;24.10;39.70
37232;DHT22;23125;48.156;15.954;2022-07-10T15:18:26;24.10;39.40
37232;DHT22;23125;48.156;15.954;2022-07-10T15:20:51;24.20;39.40
37232;DHT22;23125;48.156;15.954;2022-07-10T15:23:17;24.20;39.30
37232;DHT22;23125;48.156;15.954;2022-07-10T15:25:43;24.20;39.00
37232;DHT22;23125;48.156;15.954;2022-07-10T15:28:10;24.20;38.80
37232;DHT22;23125;48.156;15.954;2022-07-10T15:30:37;24.20;38.90
37232;DHT22;23125;48.156;15.954;2022-07-10T15:33:04;24.20;38.90
37232;DHT22;23125;48.156;15.954;2022-07-10T15:35:32;24.20;38.60
37232;DHT22;23125;48.156;15.954;2022-07-10T15:37:58;24.20;38.50
37232;DHT22;23125;48.156;15.954;2022-07-10T15:40:26;24.10;38.20
37232;DHT22;23125;48.156;15.954;2022-07-10T15:42:52;24.00;38.00
37232;DHT22;23125;48.156;15.954;2022-07-10T15:45:18;24.00;38.20
37232;DHT22;23125;48.156;15.954;2022-07-10T15:47:44;24.00;38.20
37232;DHT22;23125;48.156;15.954;2022-07-10T15:50:10;24.00;38.00
37232;DHT22;23125;48.156;15.954;2022-07-10T15:52:36;23.90;37.80
37232;DHT22;23125;48.156;15.954;2022-07-10T15:55:02;23.90;37.90
37232;DHT22;23125;48.156;15.954;2022-07-10T15:57:28;23.90;38.00
37232;DHT22;23125;48.156;15.954;2022-07-10T15:59:54;23.90;37.80
37232;DHT22;23125;48.156;15.954;2022-07-10T16:02:20;23.80;37.70
37232;DHT22;23125;48.156;15.954;2022-07-10T16:04:46;23.80;37.90
37232;DHT22;23125;48.156;15.954;2022-07-10T16:07:12;23.80;37.80
37232;DHT22;23125;48.156;15.954;2022-07-10T16:09:38;23.80;37.70
37232;DHT22;23125;48.156;15.954;2022-07-10T16:12:05;23.70;37.60
37232;DHT22;23125;48.156;15.954;2022-07-10T16:14:31;23.70;37.70
37232;DHT22;23125;48.156;15.954;2022-07-10T16:16:57;23.70;37.70
37232;DHT22;23125;48.156;15.954;2022-07-10T16:19:23;23.70;37.70
37232;DHT22;23125;48.156;15.954;2022-07-10T16:21:49;23.70;37.70
37232;DHT22;23125;48.156;15.954;2022-07-10T16:24:15;23.60;37.60
37232;DHT22;23125;48.156;15.954;2022-07-10T16:26:41;23.60;37.70
37232;DHT22;23125;48.156;15.954;2022-07-10T16:29:07;23.50;37.80
37232;DHT22;23125;48.156;15.954;2022-07-10T16:31:33;23.50;37.70
37232;DHT22;23125;48.156;15.954;2022-07-10T16:33:59;23.50;37.90
37232;DHT22;23125;48.156;15.954;2022-07-10T16:36:27;23.40;37.80
37232;DHT22;23125;48.156;15.954;2022-07-10T16:38:53;23.40;38.00
37232;DHT22;23125;48.156;15.954;2022-07-10T16:41:20;23.40;38.00
37232;DHT22;23125;48.156;15.954;2022-07-10T16:43:46;23.40;37.80
37232;DHT22;23125;48.156;15.954;2022-07-10T16:46:12;23.30;37.80
37232;DHT22;23125;48.156;15.954;2022-07-10T16:48:38;23.30;37.90
37232;DHT22;23125;48.156;15.954;2022-07-10T16:51:04;23.30;38.00
37232;DHT22;23125;48.156;15.954;2022-07-10T16:53:30;23.20;38.00
37232;DHT22;23125;48.156;15.954;2022-07-10T16:55:56;23.20;37.90
37232;DHT22;23125;48.156;15.954;2022-07-10T16:58:22;23.20;38.00
37232;DHT22;23125;48.156;15.954;2022-07-10T17:00:49;23.20;38.00
37232;DHT22;23125;48.156;15.954;2022-07-10T17:03:15;23.10;37.90
37232;DHT22;23125;48.156;15.954;2022-07-10T17:05:41;23.10;38.00
37232;DHT22;23125;48.156;15.954;2022-07-10T17:08:07;23.00;38.00
37232;DHT22;23125;48.156;15.954;2022-07-10T17:10:36;23.00;38.00
37232;DHT22;23125;48.156;15.954;2022-07-10T17:13:03;22.90;38.10
37232;DHT22;23125;48.156;15.954;2022-07-10T17:15:29;22.90;38.20
37232;DHT22;23125;48.156;15.954;2022-07-10T17:17:55;22.90;38.30
37232;DHT22;23125;48.156;15.954;2022-07-10T17:20:21;22.90;38.30
37232;DHT22;23125;48.156;15.954;2022-07-10T17:22:51;22.80;38.30
37232;DHT22;23125;48.156;15.954;2022-07-10T17:25:17;22.80;38.50
37232;DHT22;23125;48.156;15.954;2022-07-10T17:27:43;22.80;38.60
37232;DHT22;23125;48.156;15.954;2022-07-10T17:30:10;22.70;38.60
37232;DHT22;23125;48.156;15.954;2022-07-10T17:32:36;22.70;38.60
37232;DHT22;23125;48.156;15.954;2022-07-10T17:35:02;22.60;38.70
37232;DHT22;23125;48.156;15.954;2022-07-10T17:37:28;22.60;38.70
37232;DHT22;23125;48.156;15.954;2022-07-10T17:39:54;22.60;38.80
37232;DHT22;23125;48.156;15.954;2022-07-10T17:42:20;22.50;38.80
37232;DHT22;23125;48.156;15.954;2022-07-10T17:44:46;22.50;39.00
37232;DHT22;23125;48.156;15.954;2022-07-10T17:47:12;22.50;39.00
37232;DHT22;23125;48.156;15.954;2022-07-10T17:49:38;22.40;39.10
37232;DHT22;23125;48.156;15.954;2022-07-10T17:52:05;22.30;39.10
37232;DHT22;23125;48.156;15.954;2022-07-10T17:54:31;22.30;39.30
37232;DHT22;23125;48.156;15.954;2022-07-10T17:56:56;22.30;39.50
37232;DHT22;23125;48.156;15.954;2022-07-10T17:59:23;22.30;40.20
37232;DHT22;23125;48.156;15.954;2022-07-10T18:01:49;22.30;39.60
37232;DHT22;23125;48.156;15.954;2022-07-10T18:04:15;22.20;39.60
37232;DHT22;23125;48.156;15.954;2022-07-10T18:06:41;22.20;39.70
37232;DHT22;23125;48.156;15.954;2022-07-10T18:09:07;22.20;39.90
37232;DHT22;23125;48.156;15.954;2022-07-10T18:11:33;22.20;39.80
37232;DHT22;23125;48.156;15.954;2022-07-10T18:13:59;22.20;40.00
37232;DHT22;23125;48.156;15.954;2022-07-10T18:16:24;22.10;40.10
37232;DHT22;23125;48.156;15.954;2022-07-10T18:18:52;22.10;40.30
37232;DHT22;23125;48.156;15.954;2022-07-10T18:21:20;22.10;40.40
37232;DHT22;23125;48.156;15.954;2022-07-10T18:23:47;22.10;40.40
37232;DHT22;23125;48.156;15.954;2022-07-10T18:26:13;22.00;40.40
37232;DHT22;23125;48.156;15.954;2022-07-10T18:28:40;22.00;40.60
37232;DHT22;23125;48.156;15.954;2022-07-10T18:31:08;21.90;40.60
37232;DHT22;23125;48.156;15.954;2022-07-10T18:33:35;21.90;40.70
37232;DHT22;23125;48.156;15.954;2022-07-10T18:36:20;21.90;40.70
37232;DHT22;23125;48.156;15.954;2022-07-10T18:38:46;21.90;40.80
37232;DHT22;23125;48.156;15.954;2022-07-10T18:41:11;21.80;40.90
37232;DHT22;23125;48.156;15.954;2022-07-10T18:43:38;21.80;40.90
37232;DHT22;23125;48.156;15.954;2022-07-10T18:46:04;21.70;41.00
37232;DHT22;23125;48.156;15.954;2022-07-10T18:48:30;21.70;41.00
37232;DHT22;23125;48.156;15.954;2022-07-10T18:50:56;21.60;41.20
37232;DHT22;23125;48.156;15.954;2022-07-10T18:53:23;21.60;41.10
37232;DHT22;23125;48.156;15.954;2022-07-10T18:55:51;21.60;41.30
37232;DHT22;23125;48.156;15.954;2022-07-10T18:58:17;21.50;41.70
37232;DHT22;23125;48.156;15.954;2022-07-10T19:00:43;21.50;41.40
37232;DHT22;23125;48.156;15.954;2022-07-10T19:03:09;21.40;41.50
37232;DHT22;23125;48.156;15.954;2022-07-10T19:05:35;21.40;41.50
37232;DHT22;23125;48.156;15.954;2022-07-10T19:08:03;21.30;41.60
37232;DHT22;23125;48.156;15.954;2022-07-10T19:10:30;21.30;41.70
37232;DHT22;23125;48.156;15.954;2022-07-10T19:12:56;21.30;41.90
37232;DHT22;23125;48.156;15.954;2022-07-10T19:15:22;21.20;41.90
37232;DHT22;23125;48.156;15.954;2022-07-10T19:17:48;21.20;42.10
37232;DHT22;23125;48.156;15.954;2022-07-10T19:20:14;21.20;42.10
37232;DHT22;23125;48.156;15.954;2022-07-10T19:22:42;21.20;42.20
37232;DHT22;23125;48.156;15.954;2022-07-10T19:25:08;21.10;42.20
37232;DHT22;23125;48.156;15.954;2022-07-10T19:27:34;21.10;42.20
37232;DHT22;23125;48.156;15.954;2022-07-10T19:30:00;21.10;42.40
37232;DHT22;23125;48.156;15.954;2022-07-10T19:32:26;21.00;42.40
37232;DHT22;23125;48.156;15.954;2022-07-10T19:34:54;21.00;42.50
37232;DHT22;23125;48.156;15.954;2022-07-10T19:37:21;21.00;42.60
37232;DHT22;23125;48.156;15.954;2022-07-10T19:39:47;21.00;42.70
37232;DHT22;23125;48.156;15.954;2022-07-10T19:42:13;21.00;42.80
37232;DHT22;23125;48.156;15.954;2022-07-10T19:44:39;20.90;42.70
37232;DHT22;23125;48.156;15.954;2022-07-10T19:47:08;20.90;42.70
37232;DHT22;23125;48.156;15.954;2022-07-10T19:49:34;20.90;42.80
37232;DHT22;23125;48.156;15.954;2022-07-10T19:52:00;20.80;42.80
37232;DHT22;23125;48.156;15.954;2022-07-10T19:54:26;20.80;42.90
37232;DHT22;23125;48.156;15.954;2022-07-10T19:56:51;20.80;43.00
37232;DHT22;23125;48.156;15.954;2022-07-10T19:59:18;20.80;43.10
37232;DHT22;23125;48.156;15.954;2022-07-10T20:01:45;20.80;43.20
37232;DHT22;23125;48.156;15.954;2022-07-10T20:04:11;20.70;43.30
37232;DHT22;23125;48.156;15.954;2022-07-10T20:06:38;20.70;43.40
37232;DHT22;23125;48.156;15.954;2022-07-10T20:09:04;20.70;43.40
37232;DHT22;23125;48.156;15.954;2022-07-10T20:11:31;20.70;43.50
37232;DHT22;23125;48.156;15.954;2022-07-10T20:13:57;20.70;43.60
37232;DHT22;23125;48.156;15.954;2022-07-10T20:16:22;20.70;43.60
37232;DHT22;23125;48.156;15.954;2022-07-10T20:18:49;20.60;43.70
37232;DHT22;23125;48.156;15.954;2022-07-10T20:21:15;20.60;43.80
37232;DHT22;23125;48.156;15.954;2022-07-10T20:23:41;20.60;44.00
37232;DHT22;23125;48.156;15.954;2022-07-10T20:26:07;20.60;44.00
37232;DHT22;23125;48.156;15.954;2022-07-10T20:28:33;20.60;44.80
37232;DHT22;23125;48.156;15.954;2022-07-10T20:31:01;20.60;44.30
37232;DHT22;23125;48.156;15.954;2022-07-10T20:33:27;20.60;44.40
37232;DHT22;23125;48.156;15.954;2022-07-10T20:35:53;20.60;44.40
37232;DHT22;23125;48.156;15.954;2022-07-10T20:38:39;20.60;44.60
37232;DHT22;23125;48.156;15.954;2022-07-10T20:41:06;20.50;44.70
37232;DHT22;23125;48.156;15.954;2022-07-10T20:43:32;20.50;44.70
37232;DHT22;23125;48.156;15.954;2022-07-10T20:45:58;20.50;44.90
37232;DHT22;23125;48.156;15.954;2022-07-10T20:48:28;20.50;44.90
37232;DHT22;23125;48.156;15.954;2022-07-10T20:50:54;20.50;44.90
37232;DHT22;23125;48.156;15.954;2022-07-10T20:53:24;20.40;45.00
37232;DHT22;23125;48.156;15.954;2022-07-10T20:55:50;20.40;45.10
37232;DHT22;23125;48.156;15.954;2022-07-10T20:58:15;20.40;45.20
37232;DHT22;23125;48.156;15.954;2022-07-10T21:00:41;20.30;45.30
37232;DHT22;23125;48.156;15.954;2022-07-10T21:03:07;20.30;45.30
37232;DHT22;23125;48.156;15.954;2022-07-10T21:05:33;20.30;45.40
37232;DHT22;23125;48.156;15.954;2022-07-10T21:08:04;20.30;45.50
37232;DHT22;23125;48.156;15.954;2022-07-10T21:10:30;20.30;45.60
37232;DHT22;23125;48.156;15.954;2022-07-10T21:13:13;20.30;45.70
37232;DHT22;23125;48.156;15.954;2022-07-10T21:15:40;20.20;45.70
37232;DHT22;23125;48.156;15.954;2022-07-10T21:18:07;20.20;45.80
37232;DHT22;23125;48.156;15.954;2022-07-10T21:20:34;20.20;45.80
37232;DHT22;23125;48.156;15.954;2022-07-10T21:23:00;20.10;45.90
37232;DHT22;23125;48.156;15.954;2022-07-10T21:25:28;20.10;45.90
37232;DHT22;23125;48.156;15.954;2022-07-10T21:27:54;20.10;46.00
37232;DHT22;23125;48.156;15.954;2022-07-10T21:30:21;20.10;46.00
37232;DHT22;23125;48.156;15.954;2022-07-10T21:32:47;20.00;46.00
37232;DHT22;23125;48.156;15.954;2022-07-10T21:35:14;20.00;46.10
37232;DHT22;23125;48.156;15.954;2022-07-10T21:37:41;19.90;46.20
37232;DHT22;23125;48.156;15.954;2022-07-10T21:40:08;20.00;46.30
37232;DHT22;23125;48.156;15.954;2022-07-10T21:42:34;19.90;46.40
37232;DHT22;23125;48.156;15.954;2022-07-10T21:45:01;19.90;46.40
37232;DHT22;23125;48.156;15.954;2022-07-10T21:47:27;19.90;46.40
37232;DHT22;23125;48.156;15.954;2022-07-10T21:49:53;19.80;46.30
37232;DHT22;23125;48.156;15.954;2022-07-10T21:52:19;19.80;46.30
37232;DHT22;23125;48.156;15.954;2022-07-10T21:54:46;19.70;46.30
37232;DHT22;23125;48.156;15.954;2022-07-10T21:57:16;19.70;46.30
37232;DHT22;23125;48.156;15.954;2022-07-10T21:59:43;19.70;47.00
37232;DHT22;23125;48.156;15.954;2022-07-10T22:02:09;19.60;46.40
37232;DHT22;23125;48.156;15.954;2022-07-10T22:04:36;19.60;46.40
37232;DHT22;23125;48.156;15.954;2022-07-10T22:07:02;19.60;46.50
37232;DHT22;23125;48.156;15.954;2022-07-10T22:09:28;19.60;46.60
37232;DHT22;23125;48.156;15.954;2022-07-10T22:11:55;19.60;46.60
37232;DHT22;23125;48.156;15.954;2022-07-10T22:14:21;19.50;46.80
37232;DHT22;23125;48.156;15.954;2022-07-10T22:16:47;19.50;46.70
37232;DHT22;23125;48.156;15.954;2022-07-10T22:19:16;19.50;46.80
37232;DHT22;23125;48.156;15.954;2022-07-10T22:21:43;19.50;46.80
37232;DHT22;23125;48.156;15.954;2022-07-10T22:24:08;19.50;46.90
37232;DHT22;23125;48.156;15.954;2022-07-10T22:26:35;19.40;47.00
37232;DHT22;23125;48.156;15.954;2022-07-10T22:29:02;19.50;47.10
37232;DHT22;23125;48.156;15.954;2022-07-10T22:31:29;19.40;47.10
37232;DHT22;23125;48.156;15.954;2022-07-10T22:33:57;19.50;47.20
37232;DHT22;23125;48.156;15.954;2022-07-10T22:36:25;19.40;47.70
37232;DHT22;23125;48.156;15.954;2022-07-10T22:38:52;19.40;47.20
37232;DHT22;23125;48.156;15.954;2022-07-10T22:41:22;19.40;47.30
37232;DHT22;23125;48.156;15.954;2022-07-10T22:43:48;19.40;47.40
37232;DHT22;23125;48.156;15.954;2022-07-10T22:46:14;19.40;47.40
37232;DHT22;23125;48.156;15.954;2022-07-10T22:48:40;19.50;47.50
37232;DHT22;23125;48.156;15.954;2022-07-10T22:51:06;19.40;47.50
37232;DHT22;23125;48.156;15.954;2022-07-10T22:53:34;19.40;47.50
37232;DHT22;23125;48.156;15.954;2022-07-10T22:56:00;19.40;47.60
37232;DHT22;23125;48.156;15.954;2022-07-10T22:58:26;19.40;47.70
37232;DHT22;23125;48.156;15.954;2022-07-10T23:00:52;19.40;47.70
37232;DHT22;23125;48.156;15.954;2022-07-10T23:03:18;19.40;47.80
37232;DHT22;23125;48.156;15.954;2022-07-10T23:05:45;19.40;47.80
37232;DHT22;23125;48.156;15.954;2022-07-10T23:08:11;19.40;47.80
37232;DHT22;23125;48.156;15.954;2022-07-10T23:10:37;19.40;47.90
37232;DHT22;23125;48.156;15.954;2022-07-10T23:13:03;19.40;47.90
37232;DHT22;23125;48.156;15.954;2022-07-10T23:15:30;19.40;47.90
37232;DHT22;23125;48.156;15.954;2022-07-10T23:17:55;19.40;48.00
37232;DHT22;23125;48.156;15.954;2022-07-10T23:20:22;19.40;48.00
37232;DHT22;23125;48.156;15.954;2022-07-10T23:22:48;19.40;48.00
37232;DHT22;23125;48.156;15.954;2022-07-10T23:25:14;19.40;48.10
37232;DHT22;23125;48.156;15.954;2022-07-10T23:27:40;19.30;48.10
37232;DHT22;23125;48.156;15.954;2022-07-10T23:30:06;19.30;48.10
37232;DHT22;23125;48.156;15.954;2022-07-10T23:32:32;19.30;48.10
37232;DHT22;23125;48.156;15.954;2022-07-10T23:34:58;19.30;48.10
37232;DHT22;23125;48.156;15.954;2022-07-10T23:37:24;19.30;48.10
37232;DHT22;23125;48.156;15.954;2022-07-10T23:39:51;19.30;48.20
37232;DHT22;23125;48.156;15.954;2022-07-10T23:42:17;19.30;48.30
37232;DHT22;23125;48.156;15.954;2022-07-10T23:44:43;19.30;48.30
37232;DHT22;23125;48.156;15.954;2022-07-10T23:47:08;19.30;48.30
37232;DHT22;23125;48.156;15.954;2022-07-10T23:49:35;19.30;48.40
37232;DHT22;23125;48.156;15.954;2022-07-10T23:52:21;19.20;48.40
37232;DHT22;23125;48.156;15.954;2022-07-10T23:54:47;19.20;48.40
37232;DHT22;23125;48.156;15.954;2022-07-10T23:57:19;19.30;48.60
37232;DHT22;23125;48.156;15.954;2022-07-10T23:59:46;19.20;48.50
